Time;durP1;ratioP1;P1;durP2;ratioP2;P2;SDS_P1;SDS_P2;PMS_P1;PMS_P2;Temp;Humidity;BMP_temperature;BMP_pressure;BME280_temperature;BME280_humidity;BME280_pressure;Samples;Min_cycle;Max_cycle;Signal;HPM_P1;HPM_P2
2022/03/31 00:02:37;;;;;;;;;;;;;;;;;;;;;
2022/03/31 00:14:36;;;;;;;0.70;0.30;;;4.00;99.90;;;;;;5082445;28;20197;-86
2022/03/31 00:17:52;;;;;;;0.85;0.30;;;4.00;99.90;;;;;;5067641;28;20336;-84
2022/03/31 00:21:30;;;;;;;;;;;;;;;;;;;;;
2022/03/31 00:24:53;;;;;;;4.05;0.40;;;3.90;99.90;;;;;;5067640;28;20060;-86
2022/03/31 00:28:23;;;;;;;0.20;0.20;;;3.90;99.90;;;;;;5069966;28;20067;-85
2022/03/31 00:31:17;;;;;;;1.27;0.40;;;3.90;99.90;;;;;;5065513;28;20491;-86
2022/03/31 00:34:52;;;;;;;;;;;;;;;;;;;;;
2022/03/31 00:38:12;;;;;;;;;;;;;;;;;;;;;
2022/03/31 00:41:26;;;;;;;;;;;;;;;;;;;;;
2022/03/31 00:44:33;;;;;;;0.77;0.20;;;3.90;99.90;;;;;;5046491;28;20095;-86
2022/03/31 00:47:16;;;;;;;2.90;0.40;;;3.80;99.90;;;;;;5066127;28;20498;-86
2022/03/31 00:50:19;;;;;;;0.20;0.20;;;3.80;99.90;;;;;;5053431;28;20040;-86
2022/03/31 00:53:35;;;;;;;1.27;0.20;;;3.80;99.90;;;;;;5066317;28;20047;-86
2022/03/31 01:00:37;;;;;;;1.48;0.60;;;3.70;99.90;;;;;;5070979;28;20051;-87
2022/03/31 01:04:04;;;;;;;;;;;;;;;;;;;;;
2022/03/31 01:07:07;;;;;;;4.63;0.60;;;3.70;99.90;;;;;;5016135;28;20115;-85
2022/03/31 01:10:35;;;;;;;1.42;0.90;;;3.60;99.90;;;;;;5069418;28;20056;-86
2022/03/31 01:13:59;;;;;;;;;;;;;;;;;;;;;
2022/03/31 01:17:44;;;;;;;;;;;;;;;;;;;;;
2022/03/31 01:20:53;;;;;;;3.15;0.90;;;3.60;99.90;;;;;;5049363;28;20418;-86
2022/03/31 01:24:07;;;;;;;3.37;1.00;;;3.50;99.90;;;;;;5087537;28;20486;-85
2022/03/31 01:27:17;;;;;;;1.33;0.70;;;3.50;99.90;;;;;;5088675;28;20047;-87
2022/03/31 01:30:47;;;;;;;1.05;0.85;;;3.50;99.90;;;;;;5091882;28;20510;-87
2022/03/31 01:34:29;;;;;;;;;;;;;;;;;;;;;
2022/03/31 01:38:00;;;;;;;;;;;;;;;;;;;;;
2022/03/31 01:44:52;;;;;;;3.00;0.98;;;3.40;99.90;;;;;;5090716;28;20039;-85
2022/03/31 01:48:08;;;;;;;1.52;0.60;;;3.30;99.90;;;;;;5091534;28;20425;-86
2022/03/31 01:51:33;;;;;;;2.35;0.93;;;3.40;99.90;;;;;;5091198;28;20044;-85
2022/03/31 01:54:31;;;;;;;2.70;1.13;;;3.30;99.90;;;;;;5090280;28;20052;-86
2022/03/31 01:57:37;;;;;;;2.42;1.05;;;3.30;99.90;;;;;;5095234;28;20052;-86
2022/03/31 02:00:35;;;;;;;3.00;1.20;;;3.30;99.90;;;;;;5090090;28;20118;-85
2022/03/31 02:14:53;;;;;;;2.83;1.48;;;3.30;99.90;;;;;;5090869;28;20066;-85
2022/03/31 02:18:20;;;;;;;6.97;2.35;;;3.20;99.90;;;;;;5079968;28;20402;-81
2022/03/31 02:21:36;;;;;;;;;;;;;;;;;;;;;
2022/03/31 02:24:27;;;;;;;3.10;2.00;;;3.30;99.90;;;;;;5037064;28;20487;-81
2022/03/31 02:27:29;;;;;;;;;;;;;;;;;;;;;
2022/03/31 02:30:48;;;;;;;;;;;;;;;;;;;;;
2022/03/31 02:45:14;;;;;;;4.13;1.52;;;3.10;99.90;;;;;;5062477;28;20082;-85
2022/03/31 02:48:35;;;;;;;4.53;1.70;;;3.10;99.90;;;;;;5022364;28;20060;-86
2022/03/31 02:51:31;;;;;;;2.35;1.42;;;3.10;99.90;;;;;;5070152;28;20075;-86
2022/03/31 02:57:48;;;;;;;2.40;1.50;;;3.10;99.90;;;;;;5057285;28;20041;-86
2022/03/31 03:01:10;;;;;;;3.25;1.10;;;3.00;99.90;;;;;;5072073;28;20040;-86
2022/03/31 03:15:24;;;;;;;1.38;0.95;;;3.10;99.90;;;;;;5087150;28;20132;-86
2022/03/31 03:19:00;;;;;;;;;;;;;;;;;;;;;
2022/03/31 03:21:47;;;;;;;1.88;0.90;;;3.00;99.90;;;;;;5072227;28;20066;-85
2022/03/31 03:25:25;;;;;;;;;;;;;;;;;;;;;
2022/03/31 03:28:53;;;;;;;4.57;2.33;;;3.00;99.90;;;;;;5093711;28;20048;-86
2022/03/31 03:32:34;;;;;;;;;;;;;;;;;;;;;
2022/03/31 03:43:26;;;;;;;1.70;1.38;;;2.40;99.90;;;;;;5090253;28;20397;-87
2022/03/31 03:46:50;;;;;;;;;;;;;;;;;;;;;
2022/03/31 03:50:08;;;;;;;;;;;;;;;;;;;;;
2022/03/31 03:53:16;;;;;;;1.88;1.35;;;2.70;99.90;;;;;;5092238;28;20034;-86
2022/03/31 03:56:53;;;;;;;;;;;;;;;;;;;;;
2022/03/31 04:00:04;;;;;;;1.90;1.35;;;2.50;99.90;;;;;;5088610;28;20467;-86
2022/03/31 04:03:52;;;;;;;;;;;;;;;;;;;;;
2022/03/31 04:07:05;;;;;;;1.98;0.95;;;2.60;99.90;;;;;;5034855;28;20463;-86
2022/03/31 04:10:24;;;;;;;1.20;0.80;;;2.50;99.90;;;;;;5070056;28;20551;-86
2022/03/31 04:13:49;;;;;;;3.75;0.90;;;2.50;99.90;;;;;;5092544;28;20056;-87
2022/03/31 04:17:02;;;;;;;1.92;0.75;;;2.50;99.90;;;;;;5091652;28;20067;-86
2022/03/31 04:20:14;;;;;;;1.65;0.68;;;2.40;99.90;;;;;;5088700;28;20048;-86
2022/03/31 04:23:36;;;;;;;;;;;;;;;;;;;;;
2022/03/31 04:26:54;;;;;;;1.95;0.90;;;2.40;99.90;;;;;;5087497;28;20597;-86
2022/03/31 04:30:18;;;;;;;;;;;;;;;;;;;;;
2022/03/31 04:33:45;;;;;;;2.85;0.88;;;2.30;99.90;;;;;;5053223;28;20472;-86
2022/03/31 04:37:06;;;;;;;;;;;;;;;;;;;;;
2022/03/31 04:40:36;;;;;;;;;;;;;;;;;;;;;
2022/03/31 04:44:10;;;;;;;4.13;0.82;;;2.30;99.90;;;;;;5090774;28;20044;-85
2022/03/31 04:47:18;;;;;;;;;;;;;;;;;;;;;
2022/03/31 04:50:01;;;;;;;0.93;0.65;;;2.40;99.90;;;;;;4990984;28;20050;-85
2022/03/31 04:56:54;;;;;;;;;;;;;;;;;;;;;
2022/03/31 05:00:05;;;;;;;1.27;0.77;;;2.40;99.90;;;;;;4992005;28;20057;-85
2022/03/31 05:03:30;;;;;;;;;;;;;;;;;;;;;
2022/03/31 05:06:49;;;;;;;3.03;0.82;;;2.60;99.90;;;;;;4987251;28;20077;-84
2022/03/31 05:10:46;;;;;;;;;;;;;;;;;;;;;
2022/03/31 05:13:31;;;;;;;0.98;0.65;;;2.40;99.90;;;;;;4910499;28;20051;-85
2022/03/31 05:20:22;;;;;;;;;;;;;;;;;;;;;
2022/03/31 05:23:36;;;;;;;;;;;;;;;;;;;;;
2022/03/31 05:30:23;;;;;;;1.58;1.00;;;2.70;99.90;;;;;;4967402;28;20106;-82
2022/03/31 05:33:19;;;;;;;;;;;;;;;;;;;;;
2022/03/31 05:36:17;;;;;;;1.70;1.50;;;2.60;99.90;;;;;;4967365;28;20715;-83
2022/03/31 05:39:32;;;;;;;2.30;1.55;;;2.60;99.90;;;;;;4970908;28;20061;-82
2022/03/31 05:42:37;;;;;;;2.33;1.40;;;2.50;99.90;;;;;;4955779;28;20110;-82
2022/03/31 05:45:41;;;;;;;2.83;1.85;;;2.50;99.90;;;;;;4955977;28;20234;-82
2022/03/31 05:48:29;;;;;;;2.30;1.92;;;3.50;99.90;;;;;;5086757;28;20048;-82
2022/03/31 05:51:29;;;;;;;;;;;;;;;;;;;;;
2022/03/31 05:54:38;;;;;;;;;;;;;;;;;;;;;
2022/03/31 05:57:43;;;;;;;3.08;1.88;;;2.60;99.90;;;;;;5083921;28;20048;-82
2022/03/31 06:00:31;;;;;;;4.55;2.88;;;2.50;99.90;;;;;;5067499;28;20411;-83
2022/03/31 06:03:40;;;;;;;;;;;;;;;;;;;;;
2022/03/31 06:06:42;;;;;;;2.72;1.80;;;2.40;99.90;;;;;;5072321;28;20044;-81
2022/03/31 06:13:26;;;;;;;2.20;1.65;;;2.50;99.90;;;;;;5084313;28;20042;-82
2022/03/31 06:16:16;;;;;;;2.95;1.80;;;2.40;99.90;;;;;;5084776;28;20036;-82
2022/03/31 06:19:24;;;;;;;3.63;2.63;;;2.50;99.90;;;;;;5051328;28;20126;-82
2022/03/31 06:22:15;;;;;;;4.25;2.38;;;2.50;99.90;;;;;;5070177;28;20044;-83
2022/03/31 06:25:03;;;;;;;3.63;2.17;;;2.40;99.90;;;;;;5071489;28;20032;-81
2022/03/31 06:28:12;;;;;;;2.80;2.20;;;2.40;99.90;;;;;;5073567;28;20526;-82
2022/03/31 06:31:30;;;;;;;3.28;2.05;;;2.50;99.90;;;;;;5056549;28;20131;-82
2022/03/31 06:38:11;;;;;;;4.00;2.80;;;2.50;99.90;;;;;;5073000;28;20067;-82
2022/03/31 06:41:13;;;;;;;3.83;2.58;;;2.50;99.90;;;;;;5021655;28;20049;-82
2022/03/31 06:44:15;;;;;;;3.67;2.72;;;2.50;99.90;;;;;;5069677;28;20049;-83
2022/03/31 06:47:28;;;;;;;3.97;2.50;;;2.50;99.90;;;;;;5067244;28;20041;-83
2022/03/31 06:50:13;;;;;;;;;;;3.20;99.90;;;;;;5064752;28;20064;-82
2022/03/31 07:00:40;;;;;;;4.75;3.08;;;2.50;99.90;;;;;;5059098;28;20473;-82
2022/03/31 07:04:00;;;;;;;;;;;;;;;;;;;;;
2022/03/31 07:06:44;;;;;;;4.50;3.30;;;2.50;99.90;;;;;;5046841;28;20097;-82
2022/03/31 07:09:52;;;;;;;5.13;3.25;;;2.50;99.90;;;;;;5046387;28;20116;-81
2022/03/31 07:13:05;;;;;;;;;;;;;;;;;;;;;
2022/03/31 07:16:11;;;;;;;6.32;3.65;;;2.50;99.90;;;;;;5047422;28;20052;-81
2022/03/31 07:19:01;;;;;;;5.78;3.90;;;2.50;99.90;;;;;;5028700;28;20041;-82
2022/03/31 07:21:58;;;;;;;5.65;4.20;;;2.50;99.90;;;;;;5059853;28;20407;-82
2022/03/31 07:24:44;;;;;;;4.35;3.30;;;2.60;99.90;;;;;;5061269;28;20115;-84
2022/03/31 07:27:40;;;;;;;5.00;3.25;;;2.10;99.90;;;;;;5044670;28;20069;-81
2022/03/31 07:30:35;;;;;;;4.18;3.03;;;2.60;99.90;;;;;;5023478;28;20132;-82
2022/03/31 07:33:40;;;;;;;5.28;3.60;;;2.60;99.90;;;;;;5062574;28;20041;-83
2022/03/31 07:36:40;;;;;;;6.35;4.22;;;2.50;99.90;;;;;;5051661;28;20056;-83
2022/03/31 07:43:12;;;;;;;;;;;2.60;99.90;;;;;;5042680;28;20049;-81
2022/03/31 07:46:04;;;;;;;7.28;4.70;;;2.50;99.90;;;;;;5059827;28;19920;-81
2022/03/31 07:49:00;;;;;;;7.47;5.15;;;2.50;99.90;;;;;;5058446;28;20444;-82
2022/03/31 07:52:06;;;;;;;8.45;5.15;;;2.60;99.90;;;;;;5042087;28;20048;-84
2022/03/31 07:55:25;;;;;;;;;;;;;;;;;;;;;
2022/03/31 07:58:19;;;;;;;5.30;3.88;;;2.50;99.90;;;;;;5073122;28;20040;-81
2022/03/31 08:01:36;;;;;;;6.93;4.40;;;2.60;99.90;;;;;;5072428;28;20047;-82
2022/03/31 08:04:42;;;;;;;;;;;;;;;;;;;;;
2022/03/31 08:07:41;;;;;;;4.85;3.13;;;2.60;99.90;;;;;;5063242;28;20036;-85
2022/03/31 08:10:31;;;;;;;5.35;3.28;;;2.60;99.90;;;;;;5073215;28;20048;-83
2022/03/31 08:13:24;;;;;;;4.55;2.90;;;2.60;99.90;;;;;;5072395;28;20033;-83
2022/03/31 08:16:27;;;;;;;;;;;;;;;;;;;;;
2022/03/31 08:19:27;;;;;;;5.38;3.55;;;2.60;99.90;;;;;;5052655;28;20048;-83
2022/03/31 08:22:36;;;;;;;6.65;3.70;;;2.50;99.90;;;;;;5053144;28;20040;-82
2022/03/31 08:25:29;;;;;;;6.13;4.00;;;2.60;99.90;;;;;;5053602;28;20130;-82
2022/03/31 08:28:19;;;;;;;;;;;;;;;;;;;;;
2022/03/31 08:30:46;;;;;;;6.57;3.78;;;2.40;99.90;;;;;;5025984;28;20040;-80
2022/03/31 08:33:13;;;;;;;8.00;4.25;;;2.40;99.90;;;;;;5072209;28;20051;-81
2022/03/31 08:35:41;;;;;;;6.85;4.38;;;2.50;99.90;;;;;;5071489;28;20032;-83
2022/03/31 08:38:13;;;;;;;4.95;3.15;;;2.50;99.90;;;;;;5064448;28;20115;-82
2022/03/31 08:40:43;;;;;;;6.03;3.78;;;2.40;99.90;;;;;;5052961;28;20564;-83
2022/03/31 08:43:19;;;;;;;6.40;4.03;;;2.40;99.90;;;;;;5064624;28;20041;-82
2022/03/31 08:45:55;;;;;;;5.70;3.60;;;2.40;99.90;;;;;;5078870;28;20101;-84
2022/03/31 08:48:38;;;;;;;5.23;3.40;;;2.40;99.90;;;;;;5072053;28;20040;-82
2022/03/31 08:51:07;;;;;;;5.55;3.28;;;2.50;99.90;;;;;;5071437;28;20295;-82
2022/03/31 08:53:34;;;;;;;4.05;2.85;;;2.40;99.90;;;;;;5050292;28;20047;-82
2022/03/31 08:56:00;;;;;;;5.05;3.20;;;2.30;99.90;;;;;;5072033;28;20040;-81
2022/03/31 08:58:29;;;;;;;4.47;2.72;;;2.40;99.90;;;;;;5072250;28;20044;-82
2022/03/31 09:01:00;;;;;;;5.10;3.33;;;2.40;99.90;;;;;;5071101;28;20139;-86
2022/03/31 09:03:45;;;;;;;4.35;2.83;;;2.30;99.90;;;;;;5071552;28;20037;-84
2022/03/31 09:06:28;;;;;;;3.97;2.45;;;2.20;99.90;;;;;;5046505;28;20410;-82
2022/03/31 09:09:05;;;;;;;3.22;2.50;;;2.60;99.90;;;;;;5071339;28;20072;-84
2022/03/31 09:11:37;;;;;;;3.80;2.33;;;2.10;99.90;;;;;;5054014;28;20394;-88
2022/03/31 09:14:09;;;;;;;2.97;2.15;;;1.60;99.90;;;;;;5044284;28;20047;-82
2022/03/31 09:16:40;;;;;;;3.33;1.98;;;2.00;99.90;;;;;;5052227;28;20067;-85
2022/03/31 09:19:16;;;;;;;3.10;1.80;;;1.90;99.90;;;;;;5068994;28;20048;-83
2022/03/31 09:22:02;;;;;;;3.05;2.25;;;2.10;99.90;;;;;;5075335;28;20549;-85
2022/03/31 09:31:52;;;;;;;3.25;1.83;;;1.50;99.90;;;;;;5081399;28;20046;-83
2022/03/31 09:34:37;;;;;;;3.00;1.98;;;1.60;99.90;;;;;;5101039;28;20071;-84
2022/03/31 09:37:05;;;;;;;4.82;2.78;;;1.40;99.90;;;;;;5076836;28;20510;-84
2022/03/31 09:40:02;;;;;;;4.57;3.13;;;1.40;99.90;;;;;;5092198;28;20062;-84
2022/03/31 09:42:49;;;;;;;3.20;2.47;;;1.40;99.90;;;;;;5069642;28;20083;-86
2022/03/31 09:45:54;;;;;;;3.47;2.25;;;1.40;99.90;;;;;;5082712;28;20452;-86
2022/03/31 09:48:48;;;;;;;3.03;1.90;;;0.90;99.90;;;;;;5070744;28;20048;-84
2022/03/31 09:52:00;;;;;;;4.53;2.03;;;1.20;99.90;;;;;;5098324;28;20039;-88
2022/03/31 09:54:57;;;;;;;3.55;2.20;;;1.30;99.90;;;;;;5084078;28;20048;-90
2022/03/31 09:58:27;;;;;;;4.32;2.45;;;1.20;99.90;;;;;;5073707;28;20126;-88
2022/03/31 10:01:41;;;;;;;3.75;2.17;;;1.00;99.90;;;;;;5014021;28;20085;-91
2022/03/31 10:04:13;;;;;;;4.25;2.17;;;1.20;99.90;;;;;;4969480;28;20078;-86
2022/03/31 10:07:22;;;;;;;3.85;2.60;;;1.20;99.90;;;;;;4955882;28;20134;-86
2022/03/31 10:10:33;;;;;;;4.15;2.35;;;1.20;99.90;;;;;;4951675;28;20050;-85
2022/03/31 10:13:36;;;;;;;3.03;1.80;;;1.20;99.90;;;;;;4975217;28;20050;-88
2022/03/31 10:16:47;;;;;;;5.57;2.35;;;1.10;99.90;;;;;;4951088;28;20106;-86
2022/03/31 10:19:46;;;;;;;4.15;2.40;;;1.10;99.90;;;;;;4954645;28;20522;-82
2022/03/31 10:26:07;;;;;;;3.55;2.10;;;1.10;99.90;;;;;;4954960;28;20130;-85
2022/03/31 10:29:13;;;;;;;3.72;2.70;;;1.00;99.90;;;;;;4968506;28;20464;-83
2022/03/31 10:31:46;;;;;;;3.72;2.38;;;1.00;99.90;;;;;;4970639;28;20043;-85
2022/03/31 10:34:14;;;;;;;3.45;2.13;;;1.00;99.90;;;;;;4967697;28;20551;-85
2022/03/31 10:36:49;;;;;;;4.40;2.75;;;1.00;99.90;;;;;;4973939;28;20456;-85
2022/03/31 10:39:23;;;;;;;4.50;2.35;;;0.90;99.90;;;;;;4977369;28;20307;-85
2022/03/31 10:42:05;;;;;;;3.08;2.33;;;0.90;99.90;;;;;;5070593;28;20060;-86
2022/03/31 10:44:36;;;;;;;4.78;2.55;;;0.90;99.90;;;;;;5067899;28;20513;-85
2022/03/31 10:47:09;;;;;;;3.22;2.00;;;0.90;99.90;;;;;;5065830;28;20063;-85
2022/03/31 10:49:39;;;;;;;3.83;2.50;;;0.80;99.90;;;;;;5069376;28;20044;-84
2022/03/31 10:52:17;;;;;;;6.80;2.35;;;0.80;99.90;;;;;;5072721;28;20060;-85
2022/03/31 10:54:46;;;;;;;3.80;2.35;;;0.90;99.90;;;;;;5061541;28;20127;-84
2022/03/31 10:57:20;;;;;;;4.30;2.10;;;0.80;99.90;;;;;;5058617;28;20079;-85
2022/03/31 10:59:52;;;;;;;4.60;2.28;;;0.90;99.90;;;;;;5071742;28;20572;-83
2022/03/31 11:02:41;;;;;;;3.72;2.38;;;0.90;99.90;;;;;;5063538;28;20386;-83
2022/03/31 11:05:11;;;;;;;6.32;2.33;;;0.90;99.90;;;;;;5073027;28;20045;-83
2022/03/31 11:07:45;;;;;;;3.00;2.25;;;0.90;99.90;;;;;;5055649;28;20254;-84
2022/03/31 11:10:19;;;;;;;2.53;1.70;;;0.90;99.90;;;;;;5081407;28;20045;-85
2022/03/31 11:12:59;;;;;;;3.55;2.13;;;0.90;99.90;;;;;;5070377;28;20076;-84
2022/03/31 11:15:58;;;;;;;;;;;;;;;;;;;;;
2022/03/31 11:19:20;;;;;;;4.13;2.65;;;1.00;99.90;;;;;;5088881;28;20048;-85
2022/03/31 11:22:30;;;;;;;3.10;1.73;;;1.00;99.90;;;;;;5092818;28;20455;-84
2022/03/31 11:25:31;;;;;;;2.90;2.10;;;1.10;99.90;;;;;;5093725;28;20578;-85
2022/03/31 11:28:45;;;;;;;;;;;;;;;;;;;;;
2022/03/31 11:31:36;;;;;;;3.50;2.20;;;1.10;99.90;;;;;;5093733;28;20385;-84
2022/03/31 11:34:32;;;;;;;2.80;1.73;;;1.20;99.90;;;;;;5093405;28;20040;-84
2022/03/31 11:37:38;;;;;;;3.75;1.95;;;1.10;99.90;;;;;;5073500;28;20056;-84
2022/03/31 11:40:52;;;;;;;;;;;;;;;;;;;;;
2022/03/31 11:44:06;;;;;;;2.17;1.75;;;1.10;99.90;;;;;;5078571;28;20046;-87
2022/03/31 11:47:20;;;;;;;3.50;2.08;;;1.10;99.90;;;;;;5086542;28;20036;-83
2022/03/31 11:50:20;;;;;;;2.25;1.60;;;1.00;99.90;;;;;;5065632;28;20513;-87
2022/03/31 11:53:11;;;;;;;3.15;1.95;;;1.00;99.90;;;;;;5092393;28;20490;-86
2022/03/31 11:56:15;;;;;;;3.80;1.90;;;1.00;99.90;;;;;;5075359;28;20050;-86
2022/03/31 11:58:56;;;;;;;2.70;2.15;;;0.90;99.90;;;;;;5086993;28;20115;-85
2022/03/31 12:01:43;;;;;;;3.45;1.80;;;0.90;99.90;;;;;;5092873;28;20032;-84
2022/03/31 12:04:24;;;;;;;4.78;2.13;;;0.90;99.90;;;;;;5092289;28;20036;-83
2022/03/31 12:06:54;;;;;;;3.72;2.40;;;0.90;99.90;;;;;;5093004;28;20051;-85
2022/03/31 12:09:30;;;;;;;2.85;1.90;;;0.90;99.90;;;;;;5089598;28;20047;-86
2022/03/31 12:12:12;;;;;;;4.82;2.65;;;0.90;99.90;;;;;;5091345;28;20130;-86
2022/03/31 12:15:02;;;;;;;3.80;2.33;;;0.90;99.90;;;;;;5074279;28;20140;-84
2022/03/31 12:17:44;;;;;;;4.43;2.30;;;0.90;99.90;;;;;;5056072;28;20037;-86
2022/03/31 12:20:20;;;;;;;5.15;2.00;;;0.80;99.90;;;;;;5076774;28;20044;-83
2022/03/31 12:22:48;;;;;;;6.45;2.45;;;0.60;99.90;;;;;;5047790;28;20470;-85
2022/03/31 12:25:29;;;;;;;4.95;2.85;;;0.90;99.90;;;;;;5055453;28;20051;-85
2022/03/31 12:28:09;;;;;;;4.72;2.38;;;0.90;99.90;;;;;;5077229;28;20083;-83
2022/03/31 12:30:47;;;;;;;4.13;2.97;;;1.00;99.90;;;;;;5071706;28;20043;-83
2022/03/31 12:33:31;;;;;;;4.07;2.95;;;0.90;99.90;;;;;;5052086;28;20127;-82
2022/03/31 12:36:06;;;;;;;7.00;3.42;;;0.90;99.90;;;;;;5047847;28;20056;-84
2022/03/31 12:38:44;;;;;;;4.95;3.35;;;0.90;99.90;;;;;;5064001;28;20118;-83
2022/03/31 12:41:36;;;;;;;4.20;3.00;;;0.90;99.90;;;;;;5071724;28;20033;-85
2022/03/31 12:44:15;;;;;;;5.70;3.50;;;0.90;99.90;;;;;;5032354;28;20144;-85
2022/03/31 12:46:58;;;;;;;3.80;2.88;;;0.90;99.90;;;;;;5053763;28;20050;-85
2022/03/31 12:49:33;;;;;;;5.43;3.58;;;0.80;99.90;;;;;;5070970;28;20106;-84
2022/03/31 12:52:34;;;;;;;5.55;3.33;;;0.90;99.90;;;;;;5053450;28;20453;-84
2022/03/31 12:55:13;;;;;;;4.70;2.92;;;1.00;99.90;;;;;;5043447;28;20514;-84
2022/03/31 12:58:13;;;;;;;6.05;3.28;;;0.90;99.90;;;;;;5037374;28;20048;-85
2022/03/31 13:01:13;;;;;;;5.07;3.63;;;0.80;99.90;;;;;;5042626;28;21466;-85
2022/03/31 13:04:00;;;;;;;5.47;3.75;;;1.10;99.90;;;;;;5051649;28;20111;-86
2022/03/31 13:06:49;;;;;;;6.25;4.53;;;0.90;99.90;;;;;;5071216;28;20044;-86
2022/03/31 13:09:20;;;;;;;6.93;4.70;;;0.20;99.90;;;;;;5053631;28;20040;-84
2022/03/31 13:11:51;;;;;;;6.82;4.22;;;0.30;99.90;;;;;;5071509;28;20120;-82
2022/03/31 13:14:19;;;;;;;6.40;4.68;;;1.00;99.90;;;;;;5070730;28;20052;-81
2022/03/31 13:16:46;;;;;;;7.43;4.95;;;1.00;99.90;;;;;;5079836;28;20106;-82
2022/03/31 13:19:23;;;;;;;8.98;5.63;;;2.00;99.90;;;;;;5070018;28;20045;-82
2022/03/31 13:32:54;;;;;;;9.75;5.75;;;1.00;99.90;;;;;;5091606;28;20401;-84
2022/03/31 13:35:25;;;;;;;8.65;4.93;;;1.00;99.90;;;;;;5076877;28;20566;-82
2022/03/31 13:38:01;;;;;;;10.05;5.13;;;1.00;99.90;;;;;;5096259;28;20394;-84
2022/03/31 13:40:37;;;;;;;6.55;4.38;;;0.60;99.90;;;;;;5077688;28;20047;-85
2022/03/31 13:43:07;;;;;;;;;;;0.90;99.90;;;;;;5078441;28;20047;-84
2022/03/31 13:45:33;;;;;;;10.40;4.75;;;1.00;99.90;;;;;;5077710;28;19942;-84
2022/03/31 13:48:03;;;;;;;6.63;3.95;;;0.90;99.90;;;;;;5094658;28;20115;-84
2022/03/31 13:50:32;;;;;;;6.45;4.25;;;0.90;99.90;;;;;;5077487;28;20092;-83
2022/03/31 13:55:55;;;;;;;8.23;4.75;;;0.40;99.90;;;;;;5074068;28;20040;-83
2022/03/31 14:01:10;;;;;;;7.35;4.13;;;0.80;99.90;;;;;;5094725;28;20058;-84
2022/03/31 14:03:45;;;;;;;13.60;6.05;;;0.80;99.90;;;;;;5094947;28;20071;-84
2022/03/31 14:13:35;;;;;;;13.70;6.85;;;0.70;99.90;;;;;;5091927;28;20081;-84
2022/03/31 14:16:15;;;;;;;16.58;8.02;;;0.80;99.90;;;;;;5094628;28;20046;-86
2022/03/31 14:19:03;;;;;;;29.98;9.50;;;0.80;99.90;;;;;;5089307;28;20056;-85
2022/03/31 14:21:39;;;;;;;15.93;7.18;;;1.10;99.90;;;;;;5059026;28;20050;-83
2022/03/31 14:24:13;;;;;;;9.90;5.28;;;0.30;99.90;;;;;;5090819;28;20099;-84
2022/03/31 14:26:48;;;;;;;6.50;4.20;;;0.80;99.90;;;;;;5067944;28;20576;-83
2022/03/31 14:29:24;;;;;;;7.68;4.18;;;0.80;99.90;;;;;;5091735;28;20051;-83
2022/03/31 14:31:58;;;;;;;7.47;3.92;;;0.90;99.90;;;;;;5083158;28;20410;-85
2022/03/31 14:34:28;;;;;;;4.90;3.53;;;0.80;99.90;;;;;;5077802;28;20040;-83
2022/03/31 14:36:55;;;;;;;8.48;3.65;;;0.90;99.90;;;;;;5083013;28;20080;-83
2022/03/31 14:39:24;;;;;;;6.47;4.20;;;0.80;99.90;;;;;;5065537;28;20040;-83
2022/03/31 14:41:53;;;;;;;5.90;3.40;;;0.90;99.90;;;;;;5067508;28;20127;-83
2022/03/31 14:44:32;;;;;;;7.90;3.53;;;0.80;99.90;;;;;;5084254;28;20124;-82
2022/03/31 14:47:03;;;;;;;5.53;3.58;;;0.90;99.90;;;;;;5058895;28;20506;-82
2022/03/31 14:49:31;;;;;;;5.32;3.65;;;0.80;99.90;;;;;;5038955;28;20483;-83
2022/03/31 14:52:03;;;;;;;5.90;3.55;;;0.90;99.90;;;;;;5063293;28;20101;-83
2022/03/31 14:54:33;;;;;;;9.15;3.40;;;0.80;99.90;;;;;;5083738;28;20055;-83
2022/03/31 14:57:08;;;;;;;5.93;3.45;;;1.70;99.90;;;;;;5068487;28;20101;-83
2022/03/31 14:59:34;;;;;;;7.82;3.63;;;0.90;99.90;;;;;;5078945;28;20041;-86
2022/03/31 15:02:02;;;;;;;7.05;3.55;;;0.90;99.90;;;;;;5065436;28;20040;-84
2022/03/31 15:04:30;;;;;;;4.63;2.95;;;0.80;99.90;;;;;;5063468;28;20032;-84
2022/03/31 15:07:01;;;;;;;5.35;3.17;;;1.20;99.90;;;;;;5041904;28;20115;-84
2022/03/31 15:15:13;;;;;;;7.22;3.55;;;2.20;99.90;;;;;;5082193;28;20037;-84
2022/03/31 15:17:49;;;;;;;8.07;3.47;;;0.80;99.90;;;;;;5065308;28;20044;-85
2022/03/31 15:33:58;;;;;;;3.72;1.60;;;1.10;99.90;;;;;;5091887;28;20042;-85
2022/03/31 15:36:28;;;;;;;4.53;1.70;;;0.90;99.90;;;;;;5083150;28;20177;-85
2022/03/31 15:39:00;;;;;;;4.93;2.10;;;2.10;99.90;;;;;;5085146;28;20051;-84
2022/03/31 15:41:44;;;;;;;3.00;1.80;;;0.20;99.90;;;;;;5094010;28;20064;-88
2022/03/31 15:44:25;;;;;;;4.47;1.63;;;0.90;99.90;;;;;;5086530;28;20505;-84
2022/03/31 15:46:56;;;;;;;2.97;1.73;;;0.90;99.90;;;;;;5092410;28;20044;-82
2022/03/31 15:49:29;;;;;;;4.97;1.50;;;1.70;99.90;;;;;;5059097;28;20081;-84
2022/03/31 15:52:07;;;;;;;4.50;1.60;;;1.00;99.90;;;;;;5092993;28;20528;-87
2022/03/31 15:54:41;;;;;;;3.25;1.60;;;1.00;99.90;;;;;;5092425;28;20036;-83
2022/03/31 15:57:16;;;;;;;3.80;1.48;;;1.10;99.90;;;;;;5073958;28;20052;-87
2022/03/31 15:59:52;;;;;;;3.75;1.55;;;1.10;99.90;;;;;;5074026;28;20036;-83
2022/03/31 16:02:28;;;;;;;5.90;1.65;;;1.20;99.90;;;;;;5090709;28;20457;-83
2022/03/31 16:05:00;;;;;;;4.43;1.97;;;1.20;99.90;;;;;;5090863;28;20390;-84
2022/03/31 16:07:33;;;;;;;5.40;1.80;;;1.20;99.90;;;;;;5074672;28;20036;-85
2022/03/31 16:10:05;;;;;;;3.63;1.40;;;1.20;99.90;;;;;;5092637;28;20047;-86
2022/03/31 16:12:35;;;;;;;3.47;1.38;;;1.20;99.90;;;;;;5091363;28;20142;-83
2022/03/31 16:15:40;;;;;;;2.63;1.38;;;1.30;99.90;;;;;;5092194;28;20367;-84
2022/03/31 16:22:24;;;;;;;;;;;;;;;;;;;;;
2022/03/31 16:25:26;;;;;;;4.05;1.50;;;1.40;99.90;;;;;;5065819;28;20125;-84
2022/03/31 16:28:29;;;;;;;2.90;1.27;;;1.50;99.90;;;;;;5072070;28;20052;-87
2022/03/31 16:31:43;;;;;;;;;;;;;;;;;;;;;
2022/03/31 16:34:45;;;;;;;1.90;1.00;;;1.60;99.90;;;;;;4981444;28;20048;-85
2022/03/31 16:37:50;;;;;;;3.30;1.30;;;1.60;99.90;;;;;;5007243;28;20053;-84
2022/03/31 16:40:56;;;;;;;2.78;1.38;;;0.90;99.90;;;;;;5025081;28;20073;-87
2022/03/31 16:43:51;;;;;;;4.32;0.85;;;1.60;99.90;;;;;;5007200;28;20520;-85
2022/03/31 16:46:50;;;;;;;4.22;1.20;;;1.50;99.90;;;;;;5016373;28;20609;-86
2022/03/31 16:49:49;;;;;;;1.92;1.08;;;1.60;99.90;;;;;;5030978;28;20038;-88
2022/03/31 16:52:49;;;;;;;1.30;0.60;;;1.60;99.90;;;;;;5030236;28;20050;-89
2022/03/31 16:55:33;;;;;;;2.92;1.00;;;2.40;99.90;;;;;;5013451;28;20127;-85
2022/03/31 16:58:25;;;;;;;1.70;0.93;;;1.50;99.90;;;;;;5013603;28;20534;-85
2022/03/31 17:01:59;;;;;;;;;;;;;;;;;;;;;
2022/03/31 17:05:23;;;;;;;;;;;1.40;99.90;;;;;;5120834;23;20142;-84
2022/03/31 17:08:49;;;;;;;;;;;;;;;;;;;;;
2022/03/31 17:11:53;;;;;;;2.08;0.95;;;1.20;99.90;;;;;;5088401;28;20044;-89
2022/03/31 17:14:54;;;;;;;2.88;0.77;;;1.40;99.90;;;;;;5096608;28;20048;-89
2022/03/31 17:17:55;;;;;;;1.75;0.88;;;1.30;99.90;;;;;;5099000;28;20096;-85
2022/03/31 17:21:03;;;;;;;1.88;0.80;;;0.80;99.90;;;;;;5099031;28;20105;-87
2022/03/31 17:24:09;;;;;;;;;;;;;;;;;;;;;
2022/03/31 17:27:44;;;;;;;2.42;0.88;;;1.30;99.90;;;;;;5053972;28;20545;-86
2022/03/31 17:31:28;;;;;;;1.45;0.65;;;1.30;99.90;;;;;;5098321;28;20044;-87
2022/03/31 17:35:11;;;;;;;;;;;;;;;;;;;;;
2022/03/31 17:42:07;;;;;;;3.63;0.80;;;1.50;99.90;;;;;;4889838;29;20064;-88
2022/03/31 17:45:22;;;;;;;2.63;0.75;;;1.40;99.90;;;;;;4895019;29;20093;-84
2022/03/31 17:48:41;;;;;;;2.88;0.75;;;1.40;99.90;;;;;;4890619;29;20132;-86
2022/03/31 17:51:46;;;;;;;3.53;0.98;;;1.40;99.90;;;;;;4889161;29;20091;-86
2022/03/31 17:55:02;;;;;;;;;;;;;;;;;;;;;
2022/03/31 17:57:46;;;;;;;2.22;0.73;;;1.30;99.90;;;;;;4893232;29;20602;-85
2022/03/31 18:00:55;;;;;;;;;;;;;;;;;;;;;
2022/03/31 18:03:43;;;;;;;2.55;0.90;;;1.30;99.90;;;;;;4877685;29;20063;-86
2022/03/31 18:06:38;;;;;;;4.13;1.10;;;1.20;99.90;;;;;;4893887;29;20111;-87
2022/03/31 18:09:42;;;;;;;4.20;0.85;;;1.10;99.90;;;;;;4895190;29;20070;-86
2022/03/31 18:12:43;;;;;;;;;;;;;;;;;;;;;
2022/03/31 18:15:42;;;;;;;4.65;2.10;;;1.10;99.90;;;;;;5028463;28;20048;-86
2022/03/31 18:18:58;;;;;;;;;;;;;;;;;;;;;
2022/03/31 18:25:24;;;;;;;3.25;0.80;;;1.10;99.90;;;;;;5070339;28;20075;-87
2022/03/31 18:28:16;;;;;;;3.08;0.90;;;1.00;99.90;;;;;;5069668;28;20820;-87
2022/03/31 18:40:10;;;;;;;1.35;0.60;;;0.90;99.90;;;;;;4245033;22;20511;-85
2022/03/31 18:42:59;;;;;;;0.98;0.50;;;1.70;99.90;;;;;;4968666;28;20571;-86
2022/03/31 18:45:31;;;;;;;1.63;0.70;;;1.00;99.90;;;;;;4923506;28;20558;-88
2022/03/31 18:48:23;;;;;;;3.20;0.70;;;1.10;99.90;;;;;;4983602;28;20129;-84
2022/03/31 19:01:43;;;;;;;1.50;0.70;;;1.20;99.90;;;;;;4993941;28;20125;-89
2022/03/31 19:04:15;;;;;;;1.40;0.75;;;0.70;99.90;;;;;;4989241;28;20104;-89
2022/03/31 19:09:52;;;;;;;1.98;0.60;;;1.30;99.90;;;;;;4986425;28;20096;-88
2022/03/31 19:12:25;;;;;;;3.33;0.60;;;2.30;99.90;;;;;;4981271;28;20556;-87
2022/03/31 19:15:00;;;;;;;1.55;0.73;;;1.30;99.90;;;;;;4976466;28;20096;-87
2022/03/31 19:17:35;;;;;;;1.05;0.60;;;1.30;99.90;;;;;;4991563;28;20117;-87
2022/03/31 19:20:06;;;;;;;0.98;0.45;;;1.30;99.90;;;;;;5007111;28;20060;-87
2022/03/31 19:23:22;;;;;;;2.17;0.60;;;1.40;99.90;;;;;;5021107;28;20136;-87
2022/03/31 19:26:04;;;;;;;4.20;0.70;;;1.30;99.90;;;;;;4975128;28;20653;-87
2022/03/31 19:28:38;;;;;;;;;;;1.30;99.90;;;;;;4968364;28;20046;-88
2022/03/31 19:31:41;;;;;;;3.85;0.60;;;0.70;99.90;;;;;;4964106;28;19937;-87
2022/03/31 19:34:27;;;;;;;1.63;0.70;;;1.30;99.90;;;;;;4888795;29;20057;-88